createdAt,value
2018-10-04T00:00:42.456Z,6.62
2018-10-04T00:01:42.374Z,6.57
2018-10-04T00:02:42.294Z,6.66
2018-10-04T00:03:42.216Z,6.70
2018-10-04T00:04:42.136Z,6.65
2018-10-04T00:05:42.056Z,6.63
2018-10-04T00:06:41.976Z,6.59
2018-10-04T00:07:41.896Z,6.55
2018-10-04T00:08:41.817Z,6.60
2018-10-04T00:09:41.735Z,6.52
2018-10-04T00:10:41.657Z,6.68
2018-10-04T00:11:41.576Z,6.70
2018-10-04T00:12:41.497Z,6.72
2018-10-04T00:13:41.418Z,6.72
2018-10-04T00:14:41.338Z,6.75
2018-10-04T00:15:41.258Z,6.73
2018-10-04T00:16:41.179Z,6.70
2018-10-04T00:17:41.100Z,6.76
2018-10-04T00:18:41.020Z,6.63
2018-10-04T00:19:40.939Z,6.52
2018-10-04T00:20:40.860Z,6.52
2018-10-04T00:21:40.781Z,6.54
2018-10-04T00:22:40.702Z,6.54
2018-10-04T00:23:40.620Z,6.54
2018-10-04T00:24:40.541Z,6.52
2018-10-04T00:25:40.460Z,6.52
2018-10-04T00:26:40.381Z,6.52
2018-10-04T00:27:40.303Z,6.51
2018-10-04T00:28:40.222Z,6.51
2018-10-04T00:29:40.142Z,6.54
2018-10-04T00:30:40.062Z,6.54
2018-10-04T00:31:39.984Z,6.48
2018-10-04T00:32:39.904Z,6.54
2018-10-04T00:33:39.822Z,6.45
2018-10-04T00:34:39.742Z,6.55
2018-10-04T00:35:39.663Z,6.51
2018-10-04T00:36:39.584Z,6.65
2018-10-04T00:37:39.503Z,6.66
2018-10-04T00:38:39.424Z,6.66
2018-10-04T00:39:39.345Z,6.68
2018-10-04T00:40:39.265Z,6.69
2018-10-04T00:41:39.184Z,6.70
2018-10-04T00:42:39.106Z,6.69
2018-10-04T00:43:39.075Z,6.66
2018-10-04T00:44:38.945Z,6.69
2018-10-04T00:45:38.913Z,6.69
2018-10-04T00:46:38.837Z,6.69
2018-10-04T00:47:38.706Z,6.72
2018-10-04T00:48:38.629Z,6.76
2018-10-04T00:49:38.546Z,6.70
2018-10-04T00:50:38.466Z,6.72
2018-10-04T00:51:38.386Z,6.69
2018-10-04T00:52:38.308Z,6.70
2018-10-04T00:53:38.227Z,6.76
2018-10-04T00:54:38.147Z,6.72
2018-10-04T00:55:38.069Z,6.73
2018-10-04T00:56:37.990Z,6.72
2018-10-04T00:57:37.910Z,6.72
2018-10-04T00:58:37.833Z,6.68
2018-10-04T00:59:37.752Z,6.73
2018-10-04T01:00:37.672Z,6.73
2018-10-04T01:01:37.593Z,6.66
2018-10-04T01:02:37.512Z,6.68
2018-10-04T01:03:37.433Z,6.68
2018-10-04T01:04:37.353Z,6.54
2018-10-04T01:05:37.273Z,6.59
2018-10-04T01:06:37.194Z,6.54
2018-10-04T01:07:37.115Z,6.50
2018-10-04T01:08:37.035Z,6.45
2018-10-04T01:09:36.958Z,6.47
2018-10-04T01:10:36.874Z,6.37
2018-10-04T01:11:36.800Z,6.33
2018-10-04T01:12:36.715Z,6.30
2018-10-04T01:13:36.636Z,6.30
2018-10-04T01:14:36.555Z,6.29
2018-10-04T01:15:36.480Z,6.15
2018-10-04T01:16:36.396Z,6.30
2018-10-04T01:17:36.317Z,6.15
2018-10-04T01:18:36.236Z,6.24
2018-10-04T01:19:36.256Z,6.13
2018-10-04T01:20:36.077Z,6.21
2018-10-04T01:21:35.996Z,6.08
2018-10-04T01:22:35.916Z,6.10
2018-10-04T01:23:35.837Z,6.07
2018-10-04T01:24:35.758Z,6.11
2018-10-04T01:25:35.675Z,6.11
2018-10-04T01:26:35.597Z,6.10
2018-10-04T01:27:35.517Z,6.08
2018-10-04T01:28:35.437Z,6.10
2018-10-04T01:29:35.357Z,6.10
2018-10-04T01:30:35.278Z,6.08
2018-10-04T01:31:35.308Z,6.04
2018-10-04T01:32:35.116Z,6.06
2018-10-04T01:33:35.036Z,6.11
2018-10-04T01:34:34.957Z,6.06
2018-10-04T01:35:34.877Z,6.06
2018-10-04T01:36:35.048Z,6.08
2018-10-04T01:37:34.718Z,6.07
2018-10-04T01:38:34.635Z,6.03
2018-10-04T01:39:34.555Z,6.10
2018-10-04T01:40:34.476Z,6.08
2018-10-04T01:41:34.395Z,6.11
2018-10-04T01:42:34.316Z,6.04
2018-10-04T01:43:34.235Z,6.07
2018-10-04T01:44:34.156Z,6.06
2018-10-04T01:45:34.078Z,6.08
2018-10-04T01:46:33.996Z,6.10
2018-10-04T01:47:33.917Z,6.07
2018-10-04T01:48:33.836Z,6.13
2018-10-04T01:49:33.757Z,6.11
2018-10-04T01:50:33.678Z,6.27
2018-10-04T01:51:33.597Z,6.18
2018-10-04T01:52:33.516Z,6.15
2018-10-04T01:53:33.436Z,6.08
2018-10-04T01:54:33.355Z,6.10
2018-10-04T01:55:33.275Z,6.07
2018-10-04T01:56:33.196Z,6.21
2018-10-04T01:57:33.114Z,6.26
2018-10-04T01:58:33.036Z,6.30
2018-10-04T01:59:32.955Z,6.34
2018-10-04T02:00:32.874Z,6.24
2018-10-04T02:01:32.795Z,6.27
2018-10-04T02:02:32.715Z,6.17
2018-10-04T02:03:32.635Z,6.26
2018-10-04T02:04:32.558Z,6.17
2018-10-04T02:05:32.474Z,6.21
2018-10-04T02:06:32.397Z,6.14
2018-10-04T02:07:32.315Z,6.18
2018-10-04T02:08:32.236Z,6.21
2018-10-04T02:09:32.153Z,6.13
2018-10-04T02:10:32.075Z,6.15
2018-10-04T02:11:31.995Z,6.15
2018-10-04T02:12:31.916Z,6.18
2018-10-04T02:13:31.835Z,6.14
2018-10-04T02:14:31.755Z,6.15
2018-10-04T02:15:31.676Z,6.15
2018-10-04T02:16:31.596Z,6.18
2018-10-04T02:17:31.515Z,6.17
2018-10-04T02:18:31.435Z,6.04
2018-10-04T02:19:31.356Z,6.07
2018-10-04T02:20:31.276Z,6.08
2018-10-04T02:21:31.196Z,5.97
2018-10-04T02:22:31.115Z,6.00
2018-10-04T02:23:31.036Z,5.86
2018-10-04T02:24:30.956Z,5.92
2018-10-04T02:25:30.879Z,5.88
2018-10-04T02:26:30.795Z,5.89
2018-10-04T02:27:30.716Z,5.89
2018-10-04T02:28:30.634Z,5.88
2018-10-04T02:29:30.554Z,5.89
2018-10-04T02:30:30.475Z,5.85
2018-10-04T02:31:30.395Z,5.86
2018-10-04T02:32:30.317Z,5.83
2018-10-04T02:33:30.234Z,5.80
2018-10-04T02:34:30.153Z,5.81
2018-10-04T02:35:30.075Z,5.89
2018-10-04T02:36:29.995Z,5.83
2018-10-04T02:37:29.914Z,5.75
2018-10-04T02:38:29.933Z,5.88
2018-10-04T02:39:29.754Z,5.90
2018-10-04T02:40:29.676Z,5.96
2018-10-04T02:41:29.593Z,5.83
2018-10-04T02:42:29.570Z,5.92
2018-10-04T02:43:29.483Z,5.99
2018-10-04T02:44:29.352Z,5.93
2018-10-04T02:45:29.271Z,5.92
2018-10-04T02:46:29.191Z,5.89
2018-10-04T02:47:29.111Z,5.86
2018-10-04T02:48:29.032Z,5.85
2018-10-04T02:49:28.951Z,5.81
2018-10-04T02:50:28.883Z,5.90
2018-10-04T02:51:28.790Z,5.88
2018-10-04T02:52:28.710Z,5.86
2018-10-04T02:53:28.883Z,5.92
2018-10-04T02:54:28.550Z,5.96
2018-10-04T02:55:28.469Z,5.92
2018-10-04T02:56:28.389Z,5.95
2018-10-04T02:57:28.308Z,5.93
2018-10-04T02:58:28.228Z,5.90
2018-10-04T02:59:28.148Z,5.90
2018-10-04T03:00:28.068Z,5.92
2018-10-04T03:01:27.986Z,5.83
2018-10-04T03:02:27.921Z,5.85
2018-10-04T03:03:27.827Z,5.77
2018-10-04T03:04:27.747Z,5.85
2018-10-04T03:05:27.665Z,5.85
2018-10-04T03:06:27.587Z,5.92
2018-10-04T03:07:27.505Z,5.92
2018-10-04T03:08:27.429Z,5.93
2018-10-04T03:09:27.357Z,5.86
2018-10-04T03:10:27.271Z,5.89
2018-10-04T03:11:27.184Z,5.93
2018-10-04T03:12:27.104Z,5.85
2018-10-04T03:13:27.026Z,5.92
2018-10-04T03:14:26.943Z,5.85
2018-10-04T03:15:26.862Z,5.92
2018-10-04T03:16:26.781Z,5.86
2018-10-04T03:17:26.705Z,5.83
2018-10-04T03:18:26.621Z,5.88
2018-10-04T03:19:26.791Z,5.89
2018-10-04T03:20:26.461Z,5.81
2018-10-04T03:21:26.414Z,5.92
2018-10-04T03:22:26.298Z,5.89
2018-10-04T03:23:26.219Z,5.83
2018-10-04T03:24:26.149Z,5.74
2018-10-04T03:25:26.060Z,5.75
2018-10-04T03:26:25.978Z,5.75
2018-10-04T03:27:25.898Z,5.78
2018-10-04T03:28:25.817Z,5.78
2018-10-04T03:29:25.745Z,5.83
2018-10-04T03:30:25.662Z,5.75
2018-10-04T03:31:25.577Z,5.71
2018-10-04T03:32:25.497Z,5.77
2018-10-04T03:33:25.416Z,5.65
2018-10-04T03:34:25.342Z,5.70
2018-10-04T03:35:25.255Z,5.63
2018-10-04T03:36:25.175Z,5.78
2018-10-04T03:37:25.094Z,5.80
2018-10-04T03:38:25.014Z,5.75
2018-10-04T03:39:24.936Z,5.85
2018-10-04T03:40:24.857Z,5.85
2018-10-04T03:41:24.772Z,5.85
2018-10-04T03:42:24.695Z,5.81
2018-10-04T03:43:24.613Z,5.90
2018-10-04T03:44:24.597Z,5.92
2018-10-04T03:45:24.452Z,5.86
2018-10-04T03:46:24.371Z,5.88
2018-10-04T03:47:24.291Z,5.85
2018-10-04T03:48:24.219Z,5.89
2018-10-04T03:49:24.132Z,5.88
2018-10-04T03:50:24.048Z,5.89
2018-10-04T03:51:23.969Z,5.93
2018-10-04T03:52:23.889Z,5.99
2018-10-04T03:53:23.809Z,5.92
2018-10-04T03:54:23.729Z,5.95
2018-10-04T03:55:23.649Z,5.96
2018-10-04T03:56:23.568Z,5.95
2018-10-04T03:57:23.491Z,6.10
2018-10-04T03:58:23.407Z,6.22
2018-10-04T03:59:23.330Z,6.11
2018-10-04T04:00:23.249Z,6.10
2018-10-04T04:01:23.167Z,6.06
2018-10-04T04:02:23.088Z,6.11
2018-10-04T04:03:23.006Z,6.06
2018-10-04T04:04:22.928Z,6.08
2018-10-04T04:05:22.847Z,6.08
2018-10-04T04:06:22.766Z,6.00
2018-10-04T04:07:22.687Z,5.96
2018-10-04T04:08:22.610Z,6.10
2018-10-04T04:09:22.526Z,5.99
2018-10-04T04:10:22.447Z,5.93
2018-10-04T04:11:22.369Z,5.90
2018-10-04T04:12:22.289Z,5.95
2018-10-04T04:13:22.208Z,5.90
2018-10-04T04:14:22.128Z,5.78
2018-10-04T04:15:22.048Z,5.81
2018-10-04T04:16:21.967Z,5.80
2018-10-04T04:17:21.888Z,5.85
2018-10-04T04:18:21.807Z,5.90
2018-10-04T04:19:21.726Z,5.86
2018-10-04T04:20:21.648Z,5.83
2018-10-04T04:21:21.566Z,5.89
2018-10-04T04:22:21.669Z,5.88
2018-10-04T04:23:21.407Z,5.85
2018-10-04T04:24:21.326Z,5.85
2018-10-04T04:25:21.245Z,5.74
2018-10-04T04:26:21.164Z,5.75
2018-10-04T04:27:21.188Z,5.78
2018-10-04T04:28:21.005Z,5.70
2018-10-04T04:29:20.928Z,5.75
2018-10-04T04:30:20.844Z,5.67
2018-10-04T04:31:20.766Z,5.68
2018-10-04T04:32:20.685Z,5.67
2018-10-04T04:33:20.603Z,5.65
2018-10-04T04:34:20.524Z,5.75
2018-10-04T04:35:20.444Z,5.62
2018-10-04T04:36:20.364Z,5.77
2018-10-04T04:37:20.282Z,5.63
2018-10-04T04:38:20.204Z,5.67
2018-10-04T04:39:20.122Z,5.63
2018-10-04T04:40:20.042Z,5.52
2018-10-04T04:41:19.960Z,5.59
2018-10-04T04:42:19.879Z,5.52
2018-10-04T04:43:19.800Z,5.54
2018-10-04T04:44:19.720Z,5.52
2018-10-04T04:45:19.645Z,5.53
2018-10-04T04:46:19.567Z,5.50
2018-10-04T04:47:19.479Z,5.53
2018-10-04T04:48:19.398Z,5.52
2018-10-04T04:49:19.316Z,5.52
2018-10-04T04:50:19.239Z,5.52
2018-10-04T04:51:19.157Z,5.50
2018-10-04T04:52:19.077Z,5.53
2018-10-04T04:53:19.000Z,5.53
2018-10-04T04:54:19.019Z,5.54
2018-10-04T04:55:18.834Z,5.50
2018-10-04T04:56:18.753Z,5.54
2018-10-04T04:57:18.673Z,5.57
2018-10-04T04:58:18.592Z,5.57
2018-10-04T04:59:18.514Z,5.56
2018-10-04T05:00:18.441Z,5.50
2018-10-04T05:01:18.351Z,5.52
2018-10-04T05:02:18.275Z,5.57
2018-10-04T05:03:18.191Z,5.56
2018-10-04T05:04:18.111Z,5.53
2018-10-04T05:05:18.178Z,5.53
2018-10-04T05:06:18.023Z,5.56
2018-10-04T05:07:17.871Z,5.57
2018-10-04T05:08:17.789Z,5.57
2018-10-04T05:09:17.707Z,5.54
2018-10-04T05:10:17.627Z,5.56
2018-10-04T05:11:17.546Z,5.54
2018-10-04T05:12:17.466Z,5.56
2018-10-04T05:13:17.384Z,5.56
2018-10-04T05:14:17.304Z,5.54
2018-10-04T05:15:17.224Z,5.57
2018-10-04T05:16:17.143Z,5.54
2018-10-04T05:17:17.066Z,5.54
2018-10-04T05:18:16.985Z,5.54
2018-10-04T05:19:16.902Z,5.53
2018-10-04T05:20:16.822Z,5.54
2018-10-04T05:21:16.741Z,5.52
2018-10-04T05:22:16.711Z,5.54
2018-10-04T05:23:16.579Z,5.56
2018-10-04T05:24:16.499Z,5.59
2018-10-04T05:25:16.418Z,5.52
2018-10-04T05:26:16.389Z,5.54
2018-10-04T05:27:16.258Z,5.59
2018-10-04T05:28:16.177Z,5.54
2018-10-04T05:29:16.096Z,5.56
2018-10-04T05:30:16.016Z,5.57
2018-10-04T05:31:16.037Z,5.50
2018-10-04T05:32:15.855Z,5.52
2018-10-04T05:33:15.774Z,5.56
2018-10-04T05:34:15.693Z,5.54
2018-10-04T05:35:15.613Z,5.53
2018-10-04T05:36:15.533Z,5.53
2018-10-04T05:37:15.455Z,5.52
2018-10-04T05:38:15.370Z,5.54
2018-10-04T05:39:15.292Z,5.53
2018-10-04T05:40:15.210Z,5.52
2018-10-04T05:41:15.129Z,5.56
2018-10-04T05:42:15.052Z,5.52
2018-10-04T05:43:14.968Z,5.56
2018-10-04T05:44:14.891Z,5.50
2018-10-04T05:45:14.842Z,5.53
2018-10-04T05:46:14.725Z,5.70
2018-10-04T05:47:14.648Z,5.62
2018-10-04T05:48:14.584Z,5.63
2018-10-04T05:49:14.484Z,5.70
2018-10-04T05:50:14.405Z,5.62
2018-10-04T05:51:14.323Z,5.65
2018-10-04T05:52:14.244Z,5.65
2018-10-04T05:53:14.217Z,5.62
2018-10-04T05:54:14.082Z,5.68
2018-10-04T05:55:14.001Z,5.63
2018-10-04T05:56:13.923Z,5.78
2018-10-04T05:57:13.841Z,5.63
2018-10-04T05:58:13.761Z,5.70
2018-10-04T05:59:13.747Z,5.77
2018-10-04T06:00:13.600Z,5.71
2018-10-04T06:01:13.519Z,5.72
2018-10-04T06:02:13.438Z,5.70
2018-10-04T06:03:13.358Z,5.83
2018-10-04T06:04:13.279Z,5.77
2018-10-04T06:05:13.209Z,5.78
2018-10-04T06:06:13.117Z,5.80
2018-10-04T06:07:13.036Z,5.77
2018-10-04T06:08:12.960Z,5.80
2018-10-04T06:09:12.874Z,5.80
2018-10-04T06:10:12.795Z,5.81
2018-10-04T06:11:12.714Z,5.85
2018-10-04T06:12:12.635Z,5.90
2018-10-04T06:13:12.553Z,5.89
2018-10-04T06:14:12.524Z,5.92
2018-10-04T06:15:12.555Z,5.93
2018-10-04T06:16:12.317Z,5.97
2018-10-04T06:17:12.233Z,5.96
2018-10-04T06:18:12.150Z,6.04
2018-10-04T06:19:12.072Z,6.10
2018-10-04T06:20:11.991Z,6.08
2018-10-04T06:21:11.961Z,6.07
2018-10-04T06:22:11.831Z,6.10
2018-10-04T06:23:11.752Z,6.08
2018-10-04T06:24:11.671Z,6.07
2018-10-04T06:25:11.589Z,6.08
2018-10-04T06:26:11.510Z,6.04
2018-10-04T06:27:11.679Z,6.06
2018-10-04T06:28:11.349Z,6.17
2018-10-04T06:29:11.269Z,6.22
2018-10-04T06:30:11.190Z,6.15
2018-10-04T06:31:11.109Z,6.34
2018-10-04T06:32:11.029Z,6.33
2018-10-04T06:33:10.948Z,6.33
2018-10-04T06:34:10.906Z,6.29
2018-10-04T06:35:10.812Z,6.27
2018-10-04T06:36:10.710Z,6.32
2018-10-04T06:37:10.627Z,6.32
2018-10-04T06:38:10.548Z,6.42
2018-10-04T06:39:10.469Z,6.42
2018-10-04T06:40:10.409Z,6.42
2018-10-04T06:41:10.307Z,6.42
2018-10-04T06:42:10.228Z,6.54
2018-10-04T06:43:10.149Z,6.50
2018-10-04T06:44:10.136Z,6.52
2018-10-04T06:45:09.992Z,6.52
2018-10-04T06:46:09.910Z,6.60
2018-10-04T06:47:09.830Z,6.52
2018-10-04T06:48:09.750Z,6.63
2018-10-04T06:49:09.670Z,6.73
2018-10-04T06:50:09.600Z,6.69
2018-10-04T06:51:09.510Z,6.75
2018-10-04T06:52:09.431Z,6.80
2018-10-04T06:53:09.353Z,6.83
2018-10-04T06:54:09.271Z,6.86
2018-10-04T06:55:09.191Z,6.86
2018-10-04T06:56:09.146Z,6.88
2018-10-04T06:57:09.033Z,6.91
2018-10-04T06:58:09.108Z,6.90
2018-10-04T06:59:08.875Z,6.93
2018-10-04T07:00:08.794Z,7.02
2018-10-04T07:01:08.713Z,7.06
2018-10-04T07:02:08.633Z,7.08
2018-10-04T07:03:08.555Z,7.19
2018-10-04T07:04:08.481Z,7.20
2018-10-04T07:05:08.394Z,7.13
2018-10-04T07:06:08.317Z,7.19
2018-10-04T07:07:08.237Z,7.35
2018-10-04T07:08:08.160Z,7.37
2018-10-04T07:09:08.077Z,7.38
2018-10-04T07:10:08.125Z,7.47
2018-10-04T07:11:07.921Z,7.52
2018-10-04T07:12:07.841Z,7.53
2018-10-04T07:13:07.760Z,7.57
2018-10-04T07:14:07.682Z,7.67
2018-10-04T07:15:07.604Z,7.70
2018-10-04T07:16:07.524Z,7.73
2018-10-04T07:17:07.445Z,7.64
2018-10-04T07:18:07.366Z,7.76
2018-10-04T07:19:07.286Z,7.78
2018-10-04T07:20:07.312Z,7.85
2018-10-04T07:21:07.220Z,7.86
2018-10-04T07:22:07.050Z,7.94
2018-10-04T07:23:06.975Z,8.04
2018-10-04T07:24:06.897Z,8.19
2018-10-04T07:25:06.816Z,8.25
2018-10-04T07:26:06.734Z,8.19
2018-10-04T07:27:06.659Z,8.30
2018-10-04T07:28:06.578Z,8.43
2018-10-04T07:29:06.500Z,8.58
2018-10-04T07:30:06.421Z,8.75
2018-10-04T07:31:06.343Z,8.90
2018-10-04T07:32:06.266Z,8.84
2018-10-04T07:33:06.185Z,8.95
2018-10-04T07:34:06.108Z,9.03
2018-10-04T07:35:06.092Z,9.16
2018-10-04T07:36:05.953Z,9.27
2018-10-04T07:37:05.916Z,9.34
2018-10-04T07:38:05.797Z,9.35
2018-10-04T07:39:05.720Z,9.38
2018-10-04T07:40:05.650Z,9.42
2018-10-04T07:41:05.564Z,9.60
2018-10-04T07:42:05.579Z,9.70
2018-10-04T07:43:05.410Z,9.74
2018-10-04T07:44:05.333Z,9.78
2018-10-04T07:45:05.258Z,9.83
2018-10-04T07:46:05.179Z,9.90
2018-10-04T07:47:05.251Z,9.92
2018-10-04T07:48:05.027Z,10.01
2018-10-04T07:49:04.947Z,10.00
2018-10-04T07:50:04.934Z,10.01
2018-10-04T07:51:04.798Z,10.04
2018-10-04T07:52:04.717Z,10.11
2018-10-04T07:53:04.639Z,10.21
2018-10-04T07:54:04.563Z,10.22
2018-10-04T07:55:04.486Z,10.33
2018-10-04T07:56:04.411Z,10.37
2018-10-04T07:57:04.332Z,10.41
2018-10-04T07:58:04.256Z,10.47
2018-10-04T07:59:04.183Z,10.55
2018-10-04T08:00:04.106Z,10.58
2018-10-04T08:01:04.029Z,10.56
2018-10-04T08:02:03.949Z,10.67
2018-10-04T08:03:03.879Z,10.78
2018-10-04T08:04:03.798Z,10.74
2018-10-04T08:05:03.725Z,10.84
2018-10-04T08:06:03.735Z,10.83
2018-10-04T08:07:03.569Z,10.83
2018-10-04T08:08:03.493Z,10.92
2018-10-04T08:09:03.416Z,11.00
2018-10-04T08:10:03.339Z,10.95
2018-10-04T08:11:03.264Z,10.99
2018-10-04T08:12:03.189Z,11.03
2018-10-04T08:13:03.112Z,10.99
2018-10-04T08:14:03.035Z,11.03
2018-10-04T08:15:02.960Z,11.06
2018-10-04T08:16:02.888Z,11.18
2018-10-04T08:17:02.809Z,11.36
2018-10-04T08:18:02.734Z,11.49
2018-10-04T08:19:02.657Z,11.51
2018-10-04T08:20:02.580Z,11.60
2018-10-04T08:21:02.539Z,11.72
2018-10-04T08:22:02.432Z,11.65
2018-10-04T08:23:02.356Z,11.71
2018-10-04T08:24:02.280Z,11.72
2018-10-04T08:25:02.203Z,11.76
2018-10-04T08:26:02.127Z,11.79
2018-10-04T08:27:02.052Z,11.93
2018-10-04T08:28:01.977Z,11.97
2018-10-04T08:29:01.901Z,12.11
2018-10-04T08:30:01.827Z,12.21
2018-10-04T08:31:01.752Z,12.21
2018-10-04T08:32:01.675Z,12.31
2018-10-04T08:33:01.599Z,12.34
2018-10-04T08:34:01.523Z,12.44
2018-10-04T08:35:01.476Z,12.46
2018-10-04T08:36:01.373Z,12.46
2018-10-04T08:37:01.298Z,12.55
2018-10-04T08:38:01.223Z,12.59
2018-10-04T08:39:01.147Z,12.64
2018-10-04T08:40:01.073Z,12.69
2018-10-04T08:41:00.996Z,12.64
2018-10-04T08:42:00.981Z,12.70
2018-10-04T08:43:00.845Z,12.73
2018-10-04T08:44:00.770Z,12.71
2018-10-04T08:45:00.694Z,12.78
2018-10-04T08:46:00.619Z,12.82
2018-10-04T08:47:00.544Z,12.88
2018-10-04T08:48:00.469Z,12.86
2018-10-04T08:49:00.392Z,12.97
2018-10-04T08:50:00.317Z,12.92
2018-10-04T08:51:00.242Z,13.00
2018-10-04T08:52:00.169Z,13.00
2018-10-04T08:53:00.091Z,13.07
2018-10-04T08:54:00.018Z,13.11
2018-10-04T08:54:59.941Z,13.07
2018-10-04T08:55:59.866Z,13.19
2018-10-04T08:56:59.790Z,13.21
2018-10-04T08:57:59.714Z,13.27
2018-10-04T08:58:59.640Z,13.22
2018-10-04T08:59:59.566Z,13.28
2018-10-04T09:00:59.490Z,13.27
2018-10-04T09:01:59.415Z,13.40
2018-10-04T09:02:59.340Z,13.44
2018-10-04T09:03:59.266Z,13.58
2018-10-04T09:04:59.190Z,13.62
2018-10-04T09:05:59.114Z,13.62
2018-10-04T09:06:59.039Z,13.63
2018-10-04T09:07:58.965Z,13.74
2018-10-04T09:08:58.891Z,13.74
2018-10-04T09:09:58.816Z,13.84
2018-10-04T09:10:58.743Z,13.84
2018-10-04T09:11:58.667Z,13.77
2018-10-04T09:12:58.590Z,13.83
2018-10-04T09:13:58.515Z,13.83
2018-10-04T09:14:58.442Z,13.94
2018-10-04T09:15:58.368Z,13.81
2018-10-04T09:16:58.291Z,13.83
2018-10-04T09:17:58.216Z,13.86
2018-10-04T09:18:58.142Z,13.89
2018-10-04T09:19:58.067Z,13.94
2018-10-04T09:20:57.998Z,13.96
2018-10-04T09:21:57.918Z,14.11
2018-10-04T09:22:57.843Z,14.17
2018-10-04T09:23:57.770Z,14.13
2018-10-04T09:24:57.693Z,14.09
2018-10-04T09:25:57.618Z,14.27
2018-10-04T09:26:57.545Z,14.17
2018-10-04T09:27:57.469Z,14.31
2018-10-04T09:28:57.395Z,14.29
2018-10-04T09:29:57.324Z,14.35
2018-10-04T09:30:57.246Z,14.50
2018-10-04T09:31:57.175Z,14.49
2018-10-04T09:32:57.147Z,14.57
2018-10-04T09:33:57.024Z,14.46
2018-10-04T09:34:56.949Z,14.52
2018-10-04T09:35:56.876Z,14.60
2018-10-04T09:36:56.798Z,14.52
2018-10-04T09:37:56.726Z,14.57
2018-10-04T09:38:56.652Z,14.59
2018-10-04T09:39:56.577Z,14.57
2018-10-04T09:40:56.505Z,14.60
2018-10-04T09:41:56.428Z,14.59
2018-10-04T09:42:56.405Z,14.72
2018-10-04T09:43:56.281Z,14.87
2018-10-04T09:44:56.207Z,14.98
2018-10-04T09:45:56.132Z,14.93
2018-10-04T09:46:56.058Z,14.94
2018-10-04T09:47:55.984Z,15.03
2018-10-04T09:48:55.909Z,15.02
2018-10-04T09:49:55.838Z,15.08
2018-10-04T09:50:55.762Z,15.03
2018-10-04T09:51:55.688Z,15.13
2018-10-04T09:52:55.613Z,15.09
2018-10-04T09:53:55.596Z,15.21
2018-10-04T09:54:55.466Z,15.16
2018-10-04T09:55:55.393Z,15.24
2018-10-04T09:56:55.319Z,15.24
2018-10-04T09:57:55.495Z,15.26
2018-10-04T09:58:55.171Z,15.33
2018-10-04T09:59:55.207Z,15.42
2018-10-04T10:00:55.022Z,15.41
2018-10-04T10:01:54.950Z,15.51
2018-10-04T10:02:54.926Z,15.38
2018-10-04T10:03:54.801Z,15.51
2018-10-04T10:04:54.730Z,15.61
2018-10-04T10:05:54.655Z,15.57
2018-10-04T10:06:54.581Z,15.59
2018-10-04T10:07:54.656Z,15.59
2018-10-04T10:08:54.433Z,15.51
2018-10-04T10:09:54.361Z,15.51
2018-10-04T10:10:54.286Z,15.51
2018-10-04T10:11:54.237Z,15.55
2018-10-04T10:12:54.139Z,15.67
2018-10-04T10:13:54.065Z,15.66
2018-10-04T10:14:53.993Z,15.70
2018-10-04T10:15:53.920Z,15.68
2018-10-04T10:16:53.845Z,15.68
2018-10-04T10:17:53.773Z,15.81
2018-10-04T10:18:53.699Z,15.91
2018-10-04T10:19:53.626Z,15.92
2018-10-04T10:20:53.586Z,16.01
2018-10-04T10:21:53.477Z,16.08
2018-10-04T10:22:53.405Z,16.12
2018-10-04T10:23:53.332Z,16.22
2018-10-04T10:24:53.258Z,16.01
2018-10-04T10:25:53.188Z,16.00
2018-10-04T10:26:53.112Z,16.04
2018-10-04T10:27:53.039Z,16.08
2018-10-04T10:28:52.965Z,16.01
2018-10-04T10:29:52.892Z,16.03
2018-10-04T10:30:52.819Z,16.08
2018-10-04T10:31:52.749Z,15.97
2018-10-04T10:32:52.722Z,16.04
2018-10-04T10:33:52.645Z,16.12
2018-10-04T10:34:52.530Z,16.06
2018-10-04T10:35:52.455Z,16.01
2018-10-04T10:36:52.380Z,16.08
2018-10-04T10:37:52.308Z,16.18
2018-10-04T10:38:52.237Z,16.30
2018-10-04T10:39:52.171Z,16.34
2018-10-04T10:40:52.088Z,16.44
2018-10-04T10:41:52.017Z,16.62
2018-10-04T10:42:51.985Z,16.82
2018-10-04T10:43:51.871Z,16.95
2018-10-04T10:44:51.797Z,17.03
2018-10-04T10:45:51.726Z,17.13
2018-10-04T10:46:51.658Z,17.15
2018-10-04T10:47:51.584Z,17.25
2018-10-04T10:48:51.509Z,17.17
2018-10-04T10:49:51.435Z,17.26
2018-10-04T10:50:51.362Z,17.17
2018-10-04T10:51:51.291Z,17.29
2018-10-04T10:52:51.268Z,17.32
2018-10-04T10:53:51.153Z,17.17
2018-10-04T10:54:51.073Z,17.08
2018-10-04T10:55:51.004Z,17.33
2018-10-04T10:56:50.930Z,17.79
2018-10-04T10:57:50.857Z,18.16
2018-10-04T10:58:50.848Z,18.77
2018-10-04T10:59:50.714Z,19.36
2018-10-04T11:00:50.641Z,19.97
2018-10-04T11:01:50.571Z,20.76
2018-10-04T11:02:50.503Z,21.46
2018-10-04T11:03:50.481Z,21.85
2018-10-04T11:04:50.359Z,21.94
2018-10-04T11:05:50.289Z,21.59
2018-10-04T11:06:50.219Z,21.31
2018-10-04T11:07:50.150Z,21.49
2018-10-04T11:08:50.081Z,21.35
2018-10-04T11:09:50.091Z,21.44
2018-10-04T11:10:49.945Z,21.14
2018-10-04T11:11:49.875Z,20.79
2018-10-04T11:12:49.806Z,20.50
2018-10-04T11:13:49.739Z,19.91
2018-10-04T11:14:49.670Z,20.30
2018-10-04T11:15:49.601Z,20.24
2018-10-04T11:16:49.544Z,20.54
2018-10-04T11:17:49.521Z,20.03
2018-10-04T11:18:49.397Z,19.94
2018-10-04T11:19:49.332Z,20.30
2018-10-04T11:20:49.260Z,20.49
2018-10-04T11:21:49.193Z,20.31
2018-10-04T11:22:49.124Z,20.03
2018-10-04T11:23:49.064Z,19.98
2018-10-04T11:24:48.991Z,20.54
2018-10-04T11:25:48.920Z,20.99
2018-10-04T11:26:48.853Z,21.39
2018-10-04T11:27:48.784Z,21.75
2018-10-04T11:28:48.720Z,21.98
2018-10-04T11:29:48.649Z,22.00
2018-10-04T11:30:48.581Z,22.20
2018-10-04T11:31:48.515Z,21.23
2018-10-04T11:32:48.450Z,20.96
2018-10-04T11:33:48.379Z,20.82
2018-10-04T11:34:48.313Z,21.08
2018-10-04T11:35:48.296Z,21.45
2018-10-04T11:36:48.177Z,21.63
2018-10-04T11:37:48.111Z,21.67
2018-10-04T11:38:48.044Z,21.63
2018-10-04T11:39:47.978Z,21.95
2018-10-04T11:40:47.914Z,22.31
2018-10-04T11:41:47.844Z,22.79
2018-10-04T11:42:47.778Z,23.31
2018-10-04T11:43:47.711Z,23.42
2018-10-04T11:44:47.645Z,23.12
2018-10-04T11:45:47.580Z,22.81
2018-10-04T11:46:47.515Z,22.81
2018-10-04T11:47:47.448Z,23.34
2018-10-04T11:48:47.382Z,23.90
2018-10-04T11:49:47.316Z,23.63
2018-10-04T11:50:47.251Z,23.34
2018-10-04T11:51:47.190Z,23.27
2018-10-04T11:52:47.123Z,23.83
2018-10-04T11:53:47.057Z,24.17
2018-10-04T11:54:46.992Z,24.05
2018-10-04T11:55:46.927Z,24.00
2018-10-04T11:56:46.953Z,23.89
2018-10-04T11:57:46.800Z,24.23
2018-10-04T11:58:46.735Z,24.80
2018-10-04T11:59:46.671Z,25.15
2018-10-04T12:00:46.608Z,25.09
2018-10-04T12:01:46.543Z,25.64
2018-10-04T12:02:46.482Z,25.16
2018-10-04T12:03:46.418Z,24.32
2018-10-04T12:04:46.354Z,24.32
2018-10-04T12:05:46.292Z,24.32
2018-10-04T12:06:46.285Z,23.70
2018-10-04T12:07:46.167Z,24.17
2018-10-04T12:08:46.103Z,24.54
2018-10-04T12:09:46.041Z,24.86
2018-10-04T12:10:45.977Z,25.59
2018-10-04T12:11:45.916Z,26.31
2018-10-04T12:12:45.891Z,26.28
2018-10-04T12:13:45.790Z,25.71
2018-10-04T12:14:45.729Z,24.90
2018-10-04T12:15:45.668Z,24.57
2018-10-04T12:16:45.605Z,24.02
2018-10-04T12:17:45.544Z,24.44
2018-10-04T12:18:45.497Z,24.71
2018-10-04T12:19:45.420Z,24.29
2018-10-04T12:20:45.358Z,24.07
2018-10-04T12:21:45.295Z,24.22
2018-10-04T12:22:45.234Z,24.90
2018-10-04T12:23:45.173Z,24.82
2018-10-04T12:24:45.173Z,24.25
2018-10-04T12:25:45.048Z,25.00
2018-10-04T12:26:44.988Z,25.15
2018-10-04T12:27:44.926Z,25.28
2018-10-04T12:28:44.864Z,25.10
2018-10-04T12:29:44.802Z,24.91
2018-10-04T12:30:44.804Z,24.95
2018-10-04T12:31:44.681Z,25.35
2018-10-04T12:32:44.619Z,25.30
2018-10-04T12:33:44.559Z,25.57
2018-10-04T12:34:44.495Z,25.87
2018-10-04T12:35:44.433Z,25.56
2018-10-04T12:36:44.472Z,25.70
2018-10-04T12:37:44.310Z,25.28
2018-10-04T12:38:44.250Z,25.35
2018-10-04T12:39:44.186Z,25.30
2018-10-04T12:40:44.125Z,24.82
2018-10-04T12:41:44.065Z,25.32
2018-10-04T12:42:44.004Z,25.30
2018-10-04T12:43:43.950Z,25.12
2018-10-04T12:44:43.880Z,25.09
2018-10-04T12:45:43.821Z,25.10
2018-10-04T12:46:43.760Z,25.16
2018-10-04T12:47:43.702Z,24.76
2018-10-04T12:48:43.638Z,24.83
2018-10-04T12:49:43.575Z,24.79
2018-10-04T12:50:43.516Z,25.04
2018-10-04T12:51:43.450Z,24.85
2018-10-04T12:52:43.593Z,25.23
2018-10-04T12:53:43.327Z,25.01
2018-10-04T12:54:43.264Z,24.54
2018-10-04T12:55:43.204Z,24.04
2018-10-04T12:56:43.143Z,23.93
2018-10-04T12:57:43.080Z,23.71
2018-10-04T12:58:43.017Z,23.82
2018-10-04T12:59:42.957Z,24.23
2018-10-04T13:00:42.946Z,24.90
2018-10-04T13:01:42.833Z,25.38
2018-10-04T13:02:42.772Z,25.83
2018-10-04T13:03:42.712Z,25.57
2018-10-04T13:04:42.650Z,24.78
2018-10-04T13:05:42.598Z,24.93
2018-10-04T13:06:42.714Z,24.97